Terminal Aerodrome Forecast
Issued by NWS

Home | Current Version | Previous Version | Text Only | Print | Product List | Glossary On
Versions: 1 2 3 4 5 6 7 8 9 10 11 12 13 14 15 16 17 18 19 20 21 22 23 24
000
FTUS44 KLIX 231231 AAA
TAFHUM
TAF AMD
KHUM 231231Z 2313/2412 VRB03KT 3SM BR BKN015
     FM231500 09004KT P6SM SKC
     FM231800 15005KT P6SM SKC
     FM240600 16007KT 3SM BR BKN008
     FM240800 16006KT 1SM BR BKN003=

USA.gov is the U.S. government's official web portal to all federal, state and local government web resources and services.